Time;durP1;ratioP1;P1;durP2;ratioP2;P2;SDS_P1;SDS_P2;PMS_P1;PMS_P2;Temp;Humidity;BMP_temperature;BMP_pressure;BME280_temperature;BME280_humidity;BME280_pressure;Samples;Min_cycle;Max_cycle;Signal;HPM_P1;HPM_P2
2022/11/06 00:02:15;;;;;;;;;7.25;7.25;;;;;;;;5102438;27;45453;-75
2022/11/06 00:04:40;;;;;;;;;7.75;6.00;;;;;;;;5100576;27;45885;-75
2022/11/06 00:07:06;;;;;;;;;7.00;6.00;;;;;;;;5102563;27;45348;-75
2022/11/06 00:09:32;;;;;;;;;14.75;12.25;;;;;;;;5097392;27;45256;-75
2022/11/06 00:11:58;;;;;;;;;9.50;9.00;;;;;;;;5081484;27;47439;-75
2022/11/06 00:14:23;;;;;;;;;8.25;5.25;;;;;;;;5085057;27;45515;-75
2022/11/06 00:16:48;;;;;;;;;7.50;7.50;;;;;;;;5097786;27;45385;-75
2022/11/06 00:19:14;;;;;;;;;5.75;4.50;;;;;;;;5080798;27;45405;-75
2022/11/06 00:21:39;;;;;;;;;7.00;5.00;;;;;;;;5093788;27;46150;-75
2022/11/06 00:24:05;;;;;;;;;7.75;6.75;;;;;;;;5098960;27;46311;-76
2022/11/06 00:26:32;;;;;;;;;5.00;5.00;;;;;;;;5096961;27;45512;-76
2022/11/06 00:28:57;;;;;;;;;12.75;9.00;;;;;;;;5099231;27;45344;-75
2022/11/06 00:31:24;;;;;;;;;8.00;6.00;;;;;;;;5098156;27;45625;-76
2022/11/06 00:33:49;;;;;;;;;6.50;5.25;;;;;;;;5082361;27;46423;-77
2022/11/06 00:36:19;;;;;;;;;5.00;5.00;;;;;;;;5089475;27;45424;-76
2022/11/06 00:38:44;;;;;;;;;5.75;5.00;;;;;;;;5086965;27;45187;-76
2022/11/06 00:41:11;;;;;;;;;8.75;6.25;;;;;;;;5096036;27;45211;-77
2022/11/06 00:43:36;;;;;;;;;6.75;5.25;;;;;;;;5104530;27;46366;-76
2022/11/06 00:46:05;;;;;;;;;7.25;5.25;;;;;;;;5096591;27;45402;-76
2022/11/06 00:48:31;;;;;;;;;6.00;6.00;;;;;;;;5091758;27;45311;-76
2022/11/06 00:51:29;;;;;;;;;10.00;6.25;;;;;;;;5094126;27;45336;-76
2022/11/06 00:53:55;;;;;;;;;6.00;6.00;;;;;;;;5062295;27;46191;-76
2022/11/06 00:56:21;;;;;;;;;8.75;7.00;;;;;;;;5095130;27;45241;-76
2022/11/06 00:58:47;;;;;;;;;9.25;5.50;;;;;;;;5100666;27;45274;-77
2022/11/06 01:01:17;;;;;;;;;8.00;5.75;;;;;;;;5094354;27;45371;-76
2022/11/06 01:03:43;;;;;;;;;4.75;4.00;;;;;;;;5082592;27;47075;-76
2022/11/06 01:06:16;;;;;;;;;4.25;4.25;;;;;;;;5094791;27;45383;-76
2022/11/06 01:08:42;;;;;;;;;7.00;6.50;;;;;;;;5082487;27;45365;-76
2022/11/06 01:11:07;;;;;;;;;6.75;6.00;;;;;;;;5078423;27;45842;-76
2022/11/06 01:13:32;;;;;;;;;7.50;5.25;;;;;;;;5100992;27;45335;-76
2022/11/06 01:15:57;;;;;;;;;5.75;5.00;;;;;;;;5072279;27;45541;-76
2022/11/06 01:18:23;;;;;;;;;8.25;6.25;;;;;;;;5104508;27;45217;-76
2022/11/06 01:20:48;;;;;;;;;6.75;4.75;;;;;;;;5096500;27;45234;-76
2022/11/06 01:23:13;;;;;;;;;12.00;6.25;;;;;;;;5100210;27;45137;-76
2022/11/06 01:25:38;;;;;;;;;5.25;4.00;;;;;;;;5077443;27;45620;-76
2022/11/06 01:28:03;;;;;;;;;5.50;5.00;;;;;;;;5099875;27;45255;-76
2022/11/06 01:30:29;;;;;;;;;10.00;4.00;;;;;;;;5077979;27;45694;-76
2022/11/06 01:32:54;;;;;;;;;7.50;4.25;;;;;;;;5100208;27;45251;-76
2022/11/06 01:35:19;;;;;;;;;5.75;5.25;;;;;;;;5091611;27;45165;-76
2022/11/06 01:37:44;;;;;;;;;7.00;5.00;;;;;;;;5087531;27;45181;-76
2022/11/06 01:40:10;;;;;;;;;7.00;3.75;;;;;;;;5084827;27;45520;-76
2022/11/06 01:42:35;;;;;;;;;5.00;5.00;;;;;;;;5099307;27;46243;-76
2022/11/06 01:45:15;;;;;;;;;3.50;3.00;;;;;;;;5093586;27;45160;-76
2022/11/06 01:47:40;;;;;;;;;6.00;4.75;;;;;;;;5099272;27;45337;-76
2022/11/06 01:50:08;;;;;;;;;5.50;4.00;;;;;;;;5094401;27;45358;-76
2022/11/06 01:52:33;;;;;;;;;4.00;4.00;;;;;;;;5099623;27;46170;-77
2022/11/06 01:55:19;;;;;;;;;6.25;4.50;;;;;;;;5094472;27;44796;-77
2022/11/06 01:57:46;;;;;;;;;3.50;3.00;;;;;;;;5091864;27;45279;-76
2022/11/06 02:00:11;;;;;;;;;6.25;3.00;;;;;;;;5089035;27;45316;-77
2022/11/06 02:02:37;;;;;;;;;6.00;4.50;;;;;;;;5099007;27;45411;-76
2022/11/06 02:05:02;;;;;;;;;7.00;6.00;;;;;;;;5094379;27;45276;-77
2022/11/06 02:07:27;;;;;;;;;8.00;5.00;;;;;;;;5099597;27;45239;-77
2022/11/06 02:09:52;;;;;;;;;4.75;4.75;;;;;;;;5078100;27;46134;-77
2022/11/06 02:12:35;;;;;;;;;5.00;5.00;;;;;;;;5081729;27;47169;-77
2022/11/06 02:15:19;;;;;;;;;7.00;4.00;;;;;;;;5094444;27;45876;-77
2022/11/06 02:17:47;;;;;;;;;4.50;3.00;;;;;;;;5093950;27;45313;-77
2022/11/06 02:20:17;;;;;;;;;8.00;5.00;;;;;;;;5077042;27;46563;-77
2022/11/06 02:22:52;;;;;;;;;5.50;5.50;;;;;;;;5098959;27;45391;-77
2022/11/06 02:25:17;;;;;;;;;6.00;5.00;;;;;;;;5093917;27;45712;-77
2022/11/06 02:27:50;;;;;;;;;6.00;4.75;;;;;;;;5096341;27;45420;-77
2022/11/06 02:30:16;;;;;;;;;4.75;4.00;;;;;;;;5081639;27;45386;-77
2022/11/06 02:32:51;;;;;;;;;5.25;5.25;;;;;;;;5078020;27;46702;-76
2022/11/06 02:35:25;;;;;;;;;6.00;5.75;;;;;;;;5079698;27;45452;-77
2022/11/06 02:37:54;;;;;;;;;7.50;6.00;;;;;;;;5081231;27;45447;-76
2022/11/06 02:40:20;;;;;;;;;7.50;5.75;;;;;;;;5079473;27;45177;-77
2022/11/06 02:42:47;;;;;;;;;6.75;4.75;;;;;;;;5079259;27;45464;-75
2022/11/06 02:45:16;;;;;;;;;5.00;4.00;;;;;;;;5088202;27;45549;-77
2022/11/06 02:47:42;;;;;;;;;12.25;5.00;;;;;;;;5084878;27;45465;-76
2022/11/06 02:50:20;;;;;;;;;6.00;6.00;;;;;;;;5079104;27;47625;-77
2022/11/06 02:52:51;;;;;;;;;4.75;4.00;;;;;;;;5087519;27;46524;-76
2022/11/06 02:55:18;;;;;;;;;3.50;1.75;;;;;;;;5079005;27;45353;-76
2022/11/06 02:57:55;;;;;;;;;6.00;4.50;;;;;;;;5082145;27;44753;-77
2022/11/06 03:00:22;;;;;;;;;6.00;6.00;;;;;;;;5079530;27;45457;-77
2022/11/06 03:02:54;;;;;;;;;6.50;5.00;;;;;;;;5078916;27;45429;-77
2022/11/06 03:05:25;;;;;;;;;6.00;5.75;;;;;;;;5081469;27;46220;-75
2022/11/06 03:08:01;;;;;;;;;7.00;6.00;;;;;;;;5079963;27;44772;-77
2022/11/06 03:10:29;;;;;;;;;6.50;4.75;;;;;;;;5080199;27;45371;-77
2022/11/06 03:12:56;;;;;;;;;5.00;5.00;;;;;;;;5078639;27;46218;-77
2022/11/06 03:15:32;;;;;;;;;6.00;5.00;;;;;;;;5081697;27;45934;-77
2022/11/06 03:18:12;;;;;;;;;4.75;4.00;;;;;;;;5087646;27;45462;-77
2022/11/06 03:20:40;;;;;;;;;4.50;4.25;;;;;;;;5078774;27;45686;-76
2022/11/06 03:23:10;;;;;;;;;5.50;5.50;;;;;;;;5078536;27;45836;-76
2022/11/06 03:25:42;;;;;;;;;4.50;4.50;;;;;;;;5079805;27;45612;-76
2022/11/06 03:28:33;;;;;;;;;7.00;5.75;;;;;;;;5089831;27;45489;-76
2022/11/06 03:31:00;;;;;;;;;10.50;7.75;;;;;;;;5075888;27;45224;-76
2022/11/06 03:33:32;;;;;;;;;5.00;4.00;;;;;;;;5080135;27;46253;-76
2022/11/06 03:36:05;;;;;;;;;5.75;5.00;;;;;;;;5079056;27;45624;-76
2022/11/06 03:38:33;;;;;;;;;5.00;5.00;;;;;;;;5079093;27;45413;-76
2022/11/06 03:41:01;;;;;;;;;4.00;4.00;;;;;;;;5080575;27;47240;-76
2022/11/06 03:43:29;;;;;;;;;6.00;6.00;;;;;;;;5080609;27;45489;-76
2022/11/06 03:45:55;;;;;;;;;7.00;5.00;;;;;;;;5080179;27;45423;-76
2022/11/06 03:48:29;;;;;;;;;6.25;4.00;;;;;;;;5081243;27;45414;-76
2022/11/06 03:51:02;;;;;;;;;5.50;4.25;;;;;;;;5081741;27;45444;-76
2022/11/06 03:53:34;;;;;;;;;5.75;5.00;;;;;;;;5081987;27;45413;-77
2022/11/06 03:56:04;;;;;;;;;4.25;3.00;;;;;;;;5081710;27;45224;-76
2022/11/06 03:58:32;;;;;;;;;4.00;3.00;;;;;;;;5083786;27;45313;-76
2022/11/06 04:00:58;;;;;;;;;7.25;6.25;;;;;;;;5081337;27;45547;-76
2022/11/06 04:03:33;;;;;;;;;6.25;5.00;;;;;;;;5081659;27;45406;-76
2022/11/06 04:06:01;;;;;;;;;3.00;3.00;;;;;;;;5081574;27;45217;-77
2022/11/06 04:14:01;;;;;;;;;6.50;5.00;;;;;;;;5082938;27;45532;-76
2022/11/06 04:16:30;;;;;;;;;6.50;4.50;;;;;;;;5086119;27;44722;-77
2022/11/06 04:18:56;;;;;;;;;5.00;3.50;;;;;;;;5089471;27;45383;-77
2022/11/06 04:21:27;;;;;;;;;6.00;6.00;;;;;;;;5086254;27;46390;-77
2022/11/06 04:26:58;;;;;;;;;5.00;4.00;;;;;;;;5086295;27;45321;-76
2022/11/06 04:29:23;;;;;;;;;6.00;6.00;;;;;;;;5086771;27;45326;-77
2022/11/06 04:32:06;;;;;;;;;5.00;3.75;;;;;;;;5080934;27;45339;-76
2022/11/06 04:34:36;;;;;;;;;9.00;7.75;;;;;;;;5084792;27;45321;-76
2022/11/06 04:37:01;;;;;;;;;8.25;6.50;;;;;;;;5081078;27;45169;-76
2022/11/06 04:39:27;;;;;;;;;8.25;7.00;;;;;;;;5082271;27;45638;-77
2022/11/06 04:42:00;;;;;;;;;11.00;7.00;;;;;;;;5084543;27;45236;-76
2022/11/06 04:44:28;;;;;;;;;9.50;6.25;;;;;;;;5080031;27;45385;-76
2022/11/06 04:46:56;;;;;;;;;7.00;6.00;;;;;;;;5079995;27;45522;-76
2022/11/06 04:49:23;;;;;;;;;5.00;5.00;;;;;;;;5083275;27;45385;-76
2022/11/06 04:51:48;;;;;;;;;4.50;4.00;;;;;;;;5090596;27;45394;-76
2022/11/06 04:54:14;;;;;;;;;6.25;4.75;;;;;;;;5090512;27;45629;-76
2022/11/06 04:56:40;;;;;;;;;5.50;4.50;;;;;;;;5083326;27;45707;-76
2022/11/06 04:59:05;;;;;;;;;4.50;4.00;;;;;;;;5096227;27;45165;-76
2022/11/06 05:01:30;;;;;;;;;7.25;4.25;;;;;;;;5082495;27;45430;-76
2022/11/06 05:03:56;;;;;;;;;4.00;4.00;;;;;;;;5084983;27;45200;-76
2022/11/06 05:06:21;;;;;;;;;6.50;5.00;;;;;;;;5079215;27;45243;-76
2022/11/06 05:08:46;;;;;;;;;5.50;3.75;;;;;;;;5080903;27;45311;-76
2022/11/06 05:11:12;;;;;;;;;4.00;2.75;;;;;;;;5080700;27;46032;-76
2022/11/06 05:13:37;;;;;;;;;4.75;4.75;;;;;;;;5080348;27;46082;-76
2022/11/06 05:16:02;;;;;;;;;6.00;5.00;;;;;;;;5082158;27;45311;-76
2022/11/06 05:18:27;;;;;;;;;5.75;4.00;;;;;;;;5079463;27;45234;-76
2022/11/06 05:23:39;;;;;;;;;6.50;5.00;;;;;;;;5068780;28;45912;-76
2022/11/06 05:26:05;;;;;;;;;4.50;4.00;;;;;;;;5080530;27;45431;-76
2022/11/06 05:28:30;;;;;;;;;7.50;5.00;;;;;;;;5094581;27;45221;-76
2022/11/06 05:30:55;;;;;;;;;4.75;4.75;;;;;;;;5082248;27;45375;-76
2022/11/06 05:33:20;;;;;;;;;6.00;5.00;;;;;;;;5080613;27;46214;-76
2022/11/06 05:35:45;;;;;;;;;5.75;4.50;;;;;;;;5081187;27;45402;-76
2022/11/06 05:38:11;;;;;;;;;4.25;3.50;;;;;;;;5080394;27;45383;-76
2022/11/06 05:40:36;;;;;;;;;5.25;4.50;;;;;;;;5083116;27;45442;-76
2022/11/06 05:43:01;;;;;;;;;3.00;3.00;;;;;;;;5089145;27;46284;-76
2022/11/06 05:45:27;;;;;;;;;5.25;5.25;;;;;;;;5086646;27;44770;-76
2022/11/06 05:47:52;;;;;;;;;5.50;4.50;;;;;;;;5082060;27;45290;-76
2022/11/06 05:50:17;;;;;;;;;5.00;3.00;;;;;;;;5083010;27;45522;-76
2022/11/06 05:52:42;;;;;;;;;8.25;4.00;;;;;;;;5079788;27;45229;-76
2022/11/06 05:55:08;;;;;;;;;3.00;3.00;;;;;;;;5080167;27;45225;-76
2022/11/06 05:57:33;;;;;;;;;5.75;5.75;;;;;;;;5083484;27;45406;-76
2022/11/06 05:59:58;;;;;;;;;3.00;3.00;;;;;;;;5082475;27;45324;-76
2022/11/06 06:02:23;;;;;;;;;4.25;4.25;;;;;;;;5081695;27;45519;-76
2022/11/06 06:04:49;;;;;;;;;5.25;4.25;;;;;;;;5082614;27;45236;-77
2022/11/06 06:07:14;;;;;;;;;5.00;4.00;;;;;;;;5083211;27;45288;-76
2022/11/06 06:09:39;;;;;;;;;4.25;4.25;;;;;;;;5079343;27;45582;-76
2022/11/06 06:12:04;;;;;;;;;6.00;4.00;;;;;;;;5079252;27;45332;-76
2022/11/06 06:14:30;;;;;;;;;5.75;4.75;;;;;;;;5079886;27;45421;-76
2022/11/06 06:16:55;;;;;;;;;2.75;2.75;;;;;;;;5086222;27;45562;-76
2022/11/06 06:19:20;;;;;;;;;3.75;3.75;;;;;;;;5079550;27;45417;-76
2022/11/06 06:21:45;;;;;;;;;5.25;5.00;;;;;;;;5079211;27;46423;-76
2022/11/06 06:24:10;;;;;;;;;6.25;6.00;;;;;;;;5079768;27;45200;-75
2022/11/06 06:26:36;;;;;;;;;4.00;3.50;;;;;;;;5081267;27;45461;-75
2022/11/06 06:29:01;;;;;;;;;4.50;4.50;;;;;;;;5089003;27;45423;-76
2022/11/06 06:31:27;;;;;;;;;3.00;3.00;;;;;;;;5078762;27;46306;-77
2022/11/06 06:33:52;;;;;;;;;6.00;3.50;;;;;;;;5078964;27;45635;-78
2022/11/06 06:36:17;;;;;;;;;9.25;5.50;;;;;;;;5080094;27;45431;-78
2022/11/06 06:38:42;;;;;;;;;3.00;3.00;;;;;;;;5079873;27;45201;-76
2022/11/06 06:41:08;;;;;;;;;4.75;4.25;;;;;;;;5090595;27;45043;-79
2022/11/06 06:43:33;;;;;;;;;5.75;5.00;;;;;;;;5097740;27;45270;-77
2022/11/06 06:45:59;;;;;;;;;3.50;3.50;;;;;;;;5094422;27;46626;-77
2022/11/06 06:48:25;;;;;;;;;4.00;4.00;;;;;;;;5083156;27;45438;-80
2022/11/06 06:50:50;;;;;;;;;5.00;3.75;;;;;;;;5091221;27;47289;-77
2022/11/06 06:53:15;;;;;;;;;5.00;5.00;;;;;;;;5079476;27;45341;-78
2022/11/06 06:55:41;;;;;;;;;5.50;4.00;;;;;;;;5081763;27;45405;-76
2022/11/06 06:58:06;;;;;;;;;3.50;3.50;;;;;;;;5085316;27;45621;-76
2022/11/06 07:00:31;;;;;;;;;5.00;5.00;;;;;;;;5084773;27;45311;-77
2022/11/06 07:02:56;;;;;;;;;6.50;5.00;;;;;;;;5087055;27;45352;-77
2022/11/06 07:05:22;;;;;;;;;7.25;7.25;;;;;;;;5080565;27;45380;-78
2022/11/06 07:07:47;;;;;;;;;6.25;4.50;;;;;;;;5083421;27;45467;-77
2022/11/06 07:10:12;;;;;;;;;5.25;5.25;;;;;;;;5080905;27;45941;-77
2022/11/06 07:12:37;;;;;;;;;4.00;4.00;;;;;;;;5081275;27;45339;-77
2022/11/06 07:15:03;;;;;;;;;5.50;5.50;;;;;;;;5093116;27;45468;-77
2022/11/06 07:17:28;;;;;;;;;5.00;4.50;;;;;;;;5082806;27;44771;-78
2022/11/06 07:19:53;;;;;;;;;5.00;4.25;;;;;;;;5092243;27;47789;-78
2022/11/06 07:22:18;;;;;;;;;4.75;4.75;;;;;;;;5082166;27;45243;-78
2022/11/06 07:24:44;;;;;;;;;7.50;4.00;;;;;;;;5084748;27;45282;-78
2022/11/06 07:27:09;;;;;;;;;6.75;5.75;;;;;;;;5091680;27;45702;-78
2022/11/06 07:29:34;;;;;;;;;5.25;5.00;;;;;;;;5084922;27;45098;-78
2022/11/06 07:31:59;;;;;;;;;4.50;3.75;;;;;;;;5082021;27;45295;-78
2022/11/06 07:34:24;;;;;;;;;5.25;3.50;;;;;;;;5084129;27;45461;-78
2022/11/06 07:36:49;;;;;;;;;4.00;4.00;;;;;;;;5085678;27;45853;-78
2022/11/06 07:39:15;;;;;;;;;4.25;4.25;;;;;;;;5081066;27;46323;-77
2022/11/06 07:41:40;;;;;;;;;5.00;5.00;;;;;;;;5085392;27;45288;-78
2022/11/06 07:44:05;;;;;;;;;4.75;4.75;;;;;;;;5082643;27;44661;-78
2022/11/06 07:46:30;;;;;;;;;6.25;5.75;;;;;;;;5085235;27;46143;-77
2022/11/06 07:48:56;;;;;;;;;5.25;5.25;;;;;;;;5091251;27;46087;-77
2022/11/06 07:51:21;;;;;;;;;6.00;4.75;;;;;;;;5083308;27;45421;-74
2022/11/06 07:53:46;;;;;;;;;4.00;4.00;;;;;;;;5081031;27;45418;-78
2022/11/06 07:56:11;;;;;;;;;4.00;4.00;;;;;;;;5087173;27;45478;-79
2022/11/06 07:58:37;;;;;;;;;4.00;4.00;;;;;;;;5085660;27;46482;-79
2022/11/06 08:01:02;;;;;;;;;6.00;5.25;;;;;;;;5089477;27;45731;-79
2022/11/06 08:03:31;;;;;;;;;6.75;3.00;;;;;;;;5082014;27;45216;-79
2022/11/06 08:06:01;;;;;;;;;4.75;4.75;;;;;;;;5084261;27;45309;-79
2022/11/06 08:08:27;;;;;;;;;8.25;5.00;;;;;;;;5081776;27;45106;-78
2022/11/06 08:10:52;;;;;;;;;8.00;6.00;;;;;;;;5084079;27;45235;-78
2022/11/06 08:13:18;;;;;;;;;6.75;2.25;;;;;;;;5088883;27;45258;-79
2022/11/06 08:15:43;;;;;;;;;5.75;5.50;;;;;;;;5085433;27;45435;-78
2022/11/06 08:18:09;;;;;;;;;4.25;4.00;;;;;;;;5082865;27;47507;-77
2022/11/06 08:20:35;;;;;;;;;5.00;4.75;;;;;;;;5090128;27;45394;-78
2022/11/06 08:23:01;;;;;;;;;5.50;5.50;;;;;;;;5081599;27;45402;-77
2022/11/06 08:25:27;;;;;;;;;5.25;4.25;;;;;;;;5083451;27;45297;-77
2022/11/06 08:27:56;;;;;;;;;4.50;4.50;;;;;;;;5081125;27;46529;-75
2022/11/06 08:30:21;;;;;;;;;7.25;4.25;;;;;;;;5083899;27;45390;-75
2022/11/06 08:32:47;;;;;;;;;5.00;4.00;;;;;;;;5082647;27;45346;-75
2022/11/06 08:35:12;;;;;;;;;11.25;7.75;;;;;;;;5087721;27;45223;-75
2022/11/06 08:37:37;;;;;;;;;8.75;6.50;;;;;;;;5083510;27;45337;-75
2022/11/06 08:40:03;;;;;;;;;6.00;4.25;;;;;;;;5085231;27;45457;-76
2022/11/06 08:42:28;;;;;;;;;6.00;4.00;;;;;;;;5080685;27;44808;-77
2022/11/06 08:44:53;;;;;;;;;11.25;5.25;;;;;;;;5084157;27;46972;-82
2022/11/06 08:47:18;;;;;;;;;13.75;9.50;;;;;;;;5081667;27;45423;-79
2022/11/06 08:49:44;;;;;;;;;21.75;20.75;;;;;;;;5093097;27;45364;-79
2022/11/06 08:52:09;;;;;;;;;26.00;20.50;;;;;;;;5080770;27;45303;-80
2022/11/06 08:54:34;;;;;;;;;21.50;21.50;;;;;;;;5082917;27;45389;-82
2022/11/06 08:57:00;;;;;;;;;17.50;13.50;;;;;;;;5091749;27;46284;-80
2022/11/06 08:59:26;;;;;;;;;9.75;9.50;;;;;;;;5080714;27;45342;-80
2022/11/06 09:01:51;;;;;;;;;20.50;17.50;;;;;;;;5095622;27;45297;-80
2022/11/06 09:04:16;;;;;;;;;10.00;8.00;;;;;;;;5098470;27;45366;-79
2022/11/06 09:06:41;;;;;;;;;10.50;10.50;;;;;;;;5081460;27;45363;-79
2022/11/06 09:09:07;;;;;;;;;13.75;11.50;;;;;;;;5085007;27;45557;-79
2022/11/06 09:11:32;;;;;;;;;17.75;13.00;;;;;;;;5086182;27;45145;-79
2022/11/06 09:13:57;;;;;;;;;7.00;6.00;;;;;;;;5082600;27;45520;-79
2022/11/06 09:16:23;;;;;;;;;6.00;6.00;;;;;;;;5079272;27;47593;-77
2022/11/06 09:18:48;;;;;;;;;22.50;19.25;;;;;;;;5094528;27;45362;-76
2022/11/06 09:21:14;;;;;;;;;8.25;7.00;;;;;;;;5082499;27;46740;-75
2022/11/06 09:23:39;;;;;;;;;43.25;35.50;;;;;;;;5080019;27;45341;-76
2022/11/06 09:26:04;;;;;;;;;35.50;31.50;;;;;;;;5081585;27;45374;-76
2022/11/06 09:28:30;;;;;;;;;26.50;23.25;;;;;;;;5080050;27;45429;-76
2022/11/06 09:30:55;;;;;;;;;19.00;16.25;;;;;;;;5081769;27;45379;-76
2022/11/06 09:33:20;;;;;;;;;13.25;12.75;;;;;;;;5079824;27;45279;-76
2022/11/06 09:35:45;;;;;;;;;12.25;11.25;;;;;;;;5089816;27;45385;-76
2022/11/06 09:38:11;;;;;;;;;7.00;7.00;;;;;;;;5080287;27;45418;-76
2022/11/06 09:40:38;;;;;;;;;69.75;53.50;;;;;;;;5079944;27;45381;-76
2022/11/06 09:43:22;;;;;;;;;49.75;39.75;;;;;;;;5079729;27;45228;-76
2022/11/06 09:45:50;;;;;;;;;58.00;44.75;;;;;;;;5079429;27;45407;-76
2022/11/06 09:48:35;;;;;;;;;21.75;13.75;;;;;;;;5079883;27;45438;-76
2022/11/06 09:51:15;;;;;;;;;10.25;9.50;;;;;;;;5081158;27;45479;-76
2022/11/06 09:53:50;;;;;;;;;10.00;10.00;;;;;;;;5079521;27;45214;-76
2022/11/06 09:56:17;;;;;;;;;56.50;43.25;;;;;;;;5080334;27;46789;-76
2022/11/06 09:58:43;;;;;;;;;18.75;18.00;;;;;;;;5079677;27;45181;-79
2022/11/06 10:01:14;;;;;;;;;13.25;9.50;;;;;;;;5081946;27;45218;-76
2022/11/06 10:03:45;;;;;;;;;13.25;12.75;;;;;;;;5079696;27;45421;-76
2022/11/06 10:06:11;;;;;;;;;16.50;15.25;;;;;;;;5081450;27;45382;-76
2022/11/06 10:08:36;;;;;;;;;21.25;20.25;;;;;;;;5082485;27;45335;-76
2022/11/06 10:11:14;;;;;;;;;22.25;19.00;;;;;;;;5084351;27;45403;-76
2022/11/06 10:13:54;;;;;;;;;29.75;23.25;;;;;;;;5079277;28;45445;-76
2022/11/06 10:16:49;;;;;;;;;7.50;6.50;;;;;;;;5081219;27;45495;-76
2022/11/06 10:19:19;;;;;;;;;30.00;25.25;;;;;;;;5032980;27;45527;-75
2022/11/06 10:21:47;;;;;;;;;44.00;37.75;;;;;;;;5080313;27;45422;-75
2022/11/06 10:24:24;;;;;;;;;17.25;15.00;;;;;;;;5081631;27;45748;-76
2022/11/06 10:26:56;;;;;;;;;28.25;23.25;;;;;;;;5081121;27;45414;-76
2022/11/06 10:29:40;;;;;;;;;37.50;31.00;;;;;;;;5081516;27;45521;-76
2022/11/06 10:32:15;;;;;;;;;27.25;24.25;;;;;;;;5082364;27;45182;-75
2022/11/06 10:34:56;;;;;;;;;30.75;25.75;;;;;;;;5082236;27;45166;-75
2022/11/06 10:37:24;;;;;;;;;9.75;9.75;;;;;;;;5082910;27;46097;-76
2022/11/06 10:39:51;;;;;;;;;20.75;18.50;;;;;;;;5082747;27;45363;-75
2022/11/06 10:42:18;;;;;;;;;23.00;16.00;;;;;;;;5078643;27;45359;-75
2022/11/06 10:44:43;;;;;;;;;12.25;10.00;;;;;;;;5081638;27;45500;-77
2022/11/06 10:47:28;;;;;;;;;14.50;12.50;;;;;;;;5080540;27;45365;-75
2022/11/06 10:49:55;;;;;;;;;17.75;15.75;;;;;;;;5082197;27;45452;-75
2022/11/06 10:52:20;;;;;;;;;22.50;19.00;;;;;;;;5077511;27;45360;-75
2022/11/06 10:54:45;;;;;;;;;22.00;19.00;;;;;;;;5093430;27;45325;-75
2022/11/06 10:57:10;;;;;;;;;17.50;13.50;;;;;;;;5085017;27;45361;-76
2022/11/06 10:59:36;;;;;;;;;30.25;22.75;;;;;;;;5091543;27;45440;-75
2022/11/06 11:02:01;;;;;;;;;13.00;13.00;;;;;;;;5080274;27;45764;-75
2022/11/06 11:04:27;;;;;;;;;27.50;20.75;;;;;;;;5078742;27;45864;-75
2022/11/06 11:06:52;;;;;;;;;15.25;15.25;;;;;;;;5078514;28;45464;-75
2022/11/06 11:09:28;;;;;;;;;13.00;12.00;;;;;;;;5078280;27;45350;-75
2022/11/06 11:11:54;;;;;;;;;20.00;19.50;;;;;;;;5082784;27;45299;-75
2022/11/06 11:14:29;;;;;;;;;18.50;15.00;;;;;;;;5079806;27;45505;-77
2022/11/06 11:16:57;;;;;;;;;19.75;16.50;;;;;;;;5078512;27;45407;-75
2022/11/06 11:19:25;;;;;;;;;12.00;12.00;;;;;;;;5080057;27;45478;-75
2022/11/06 11:21:53;;;;;;;;;29.50;24.25;;;;;;;;5078437;27;45346;-76
2022/11/06 11:24:18;;;;;;;;;13.75;12.00;;;;;;;;5079577;27;45644;-78
2022/11/06 11:26:53;;;;;;;;;12.00;11.50;;;;;;;;5080574;27;46969;-75
2022/11/06 11:29:22;;;;;;;;;59.50;46.75;;;;;;;;5091388;27;45524;-72
2022/11/06 11:31:50;;;;;;;;;16.25;15.00;;;;;;;;5088556;27;45422;-71
2022/11/06 11:34:21;;;;;;;;;18.50;18.00;;;;;;;;5078208;27;45401;-73
2022/11/06 11:36:54;;;;;;;;;25.00;21.00;;;;;;;;5076845;27;46332;-73
2022/11/06 11:39:22;;;;;;;;;49.00;35.75;;;;;;;;5085294;27;45339;-75
2022/11/06 11:41:47;;;;;;;;;20.25;19.00;;;;;;;;5084781;27;45181;-78
2022/11/06 11:44:14;;;;;;;;;371.67;319.00;;;;;;;;5092689;27;45402;-78
2022/11/06 11:46:45;;;;;;;;;66.25;50.75;;;;;;;;5079612;27;45440;-80
2022/11/06 11:49:25;;;;;;;;;84.75;64.00;;;;;;;;5078495;27;45312;-79
2022/11/06 11:51:50;;;;;;;;;63.50;50.00;;;;;;;;5083689;27;45315;-77
2022/11/06 11:54:25;;;;;;;;;39.25;35.00;;;;;;;;5078929;27;45260;-79
2022/11/06 11:56:58;;;;;;;;;13.00;11.25;;;;;;;;5084021;27;45490;-79
2022/11/06 11:59:26;;;;;;;;;18.25;14.50;;;;;;;;5079307;27;45145;-78
2022/11/06 12:01:52;;;;;;;;;16.00;15.00;;;;;;;;5077996;27;45312;-78
2022/11/06 12:04:24;;;;;;;;;33.25;30.75;;;;;;;;5086848;27;45515;-79
2022/11/06 12:06:57;;;;;;;;;62.50;51.50;;;;;;;;5078510;27;45402;-80
2022/11/06 12:09:24;;;;;;;;;466.33;370.67;;;;;;;;5090118;27;45275;-79
2022/11/06 12:11:50;;;;;;;;;55.25;43.25;;;;;;;;5082125;27;45461;-84
2022/11/06 12:14:25;;;;;;;;;329.75;276.75;;;;;;;;5086960;27;46050;-81
2022/11/06 12:16:53;;;;;;;;;40.00;32.75;;;;;;;;5088852;27;46185;-82
2022/11/06 12:19:19;;;;;;;;;51.00;40.75;;;;;;;;5096794;27;45324;-77
2022/11/06 12:21:48;;;;;;;;;56.75;40.25;;;;;;;;5083410;27;45375;-82
2022/11/06 12:24:26;;;;;;;;;62.25;45.00;;;;;;;;5082101;27;45422;-79
2022/11/06 12:26:54;;;;;;;;;68.75;52.75;;;;;;;;5081556;27;46339;-78
2022/11/06 12:29:45;;;;;;;;;54.25;44.25;;;;;;;;5082676;27;45292;-79
2022/11/06 12:32:36;;;;;;;;;37.75;35.00;;;;;;;;5068171;27;45380;-81
2022/11/06 12:35:05;;;;;;;;;32.50;30.00;;;;;;;;5065502;27;45304;-79
2022/11/06 12:37:46;;;;;;;;;12.25;7.00;;;;;;;;5083143;27;45338;-81
2022/11/06 12:40:19;;;;;;;;;24.75;20.00;;;;;;;;5084718;27;45244;-79
2022/11/06 12:43:07;;;;;;;;;18.25;14.25;;;;;;;;5081944;27;45460;-77
2022/11/06 12:45:38;;;;;;;;;12.25;12.00;;;;;;;;5088278;27;45218;-76
2022/11/06 12:48:11;;;;;;;;;26.00;21.25;;;;;;;;5087734;27;45370;-77
2022/11/06 12:50:47;;;;;;;;;11.50;8.25;;;;;;;;5094948;27;45341;-78
2022/11/06 12:53:30;;;;;;;;;7.75;6.25;;;;;;;;5092429;27;45389;-81
2022/11/06 12:56:01;;;;;;;;;439.40;371.20;;;;;;;;5085470;27;45345;-78
2022/11/06 12:58:26;;;;;;;;;29.00;23.50;;;;;;;;5087347;27;46602;-77
2022/11/06 13:01:03;;;;;;;;;23.25;19.50;;;;;;;;5087916;27;45298;-77
2022/11/06 13:03:29;;;;;;;;;30.75;27.50;;;;;;;;5093867;27;45448;-77
2022/11/06 13:05:57;;;;;;;;;58.75;47.00;;;;;;;;5081369;27;45316;-78
2022/11/06 13:08:41;;;;;;;;;26.25;19.50;;;;;;;;5080668;27;46200;-79
2022/11/06 13:11:15;;;;;;;;;39.75;32.50;;;;;;;;5081937;27;45353;-77
2022/11/06 13:13:47;;;;;;;;;20.50;19.25;;;;;;;;5081891;27;45439;-77
2022/11/06 13:16:12;;;;;;;;;11.75;11.50;;;;;;;;5085001;27;45800;-80
2022/11/06 13:18:44;;;;;;;;;24.75;18.75;;;;;;;;5080644;27;47141;-80
2022/11/06 13:21:28;;;;;;;;;27.25;23.50;;;;;;;;5082011;27;45512;-81
2022/11/06 13:23:58;;;;;;;;;42.25;35.50;;;;;;;;5084199;27;45403;-80
2022/11/06 13:26:23;;;;;;;;;35.75;26.50;;;;;;;;5080101;27;47664;-78
2022/11/06 13:28:54;;;;;;;;;623.25;536.75;;;;;;;;5080745;27;46372;-80
2022/11/06 13:31:21;;;;;;;;;226.25;199.00;;;;;;;;5094908;27;45525;-78
2022/11/06 13:33:53;;;;;;;;;482.20;431.80;;;;;;;;5082759;27;45280;-83
2022/11/06 13:36:19;;;;;;;;;193.00;166.00;;;;;;;;5086175;27;45338;-78
2022/11/06 13:39:04;;;;;;;;;25.50;22.50;;;;;;;;5079416;27;46489;-82
2022/11/06 13:41:30;;;;;;;;;61.25;49.50;;;;;;;;5083715;27;45326;-80
2022/11/06 13:43:59;;;;;;;;;29.50;21.00;;;;;;;;5079579;27;45368;-82
2022/11/06 13:46:30;;;;;;;;;18.50;16.00;;;;;;;;5081520;27;46118;-79
2022/11/06 13:49:12;;;;;;;;;17.00;11.00;;;;;;;;5092125;27;46146;-80
2022/11/06 13:51:52;;;;;;;;;21.75;18.00;;;;;;;;5089797;27;45509;-79
2022/11/06 13:54:17;;;;;;;;;17.25;13.00;;;;;;;;5081384;27;45353;-79
2022/11/06 13:56:46;;;;;;;;;13.00;11.75;;;;;;;;5087310;27;46015;-77
2022/11/06 13:59:11;;;;;;;;;14.50;10.25;;;;;;;;5087869;27;45708;-79
2022/11/06 14:01:55;;;;;;;;;14.25;13.50;;;;;;;;5082397;27;45895;-81
2022/11/06 14:04:23;;;;;;;;;18.00;18.00;;;;;;;;5081405;27;45607;-79
2022/11/06 14:06:51;;;;;;;;;17.00;13.50;;;;;;;;5082270;27;45348;-78
2022/11/06 14:09:18;;;;;;;;;20.25;19.25;;;;;;;;5094481;27;45211;-78
2022/11/06 14:11:49;;;;;;;;;16.75;13.00;;;;;;;;5083943;27;45261;-78
2022/11/06 14:14:21;;;;;;;;;22.75;22.00;;;;;;;;5080917;27;45582;-80
2022/11/06 14:17:06;;;;;;;;;25.75;24.00;;;;;;;;5079706;27;45967;-78
2022/11/06 14:19:31;;;;;;;;;15.25;12.50;;;;;;;;5082040;27;46211;-78
2022/11/06 14:22:16;;;;;;;;;22.25;17.00;;;;;;;;5079773;27;45421;-78
2022/11/06 14:24:41;;;;;;;;;23.00;18.75;;;;;;;;5084735;27;45503;-79
2022/11/06 14:27:22;;;;;;;;;15.75;15.00;;;;;;;;5079166;27;45418;-76
2022/11/06 14:30:01;;;;;;;;;22.00;16.75;;;;;;;;5083423;27;46263;-78
2022/11/06 14:32:40;;;;;;;;;12.50;12.00;;;;;;;;5077081;27;45469;-78
2022/11/06 14:35:24;;;;;;;;;12.75;11.25;;;;;;;;5079935;27;45283;-78
2022/11/06 14:37:49;;;;;;;;;29.75;24.25;;;;;;;;5082607;27;45430;-78
2022/11/06 14:40:29;;;;;;;;;26.25;23.25;;;;;;;;5085326;27;45164;-79
2022/11/06 14:42:54;;;;;;;;;14.00;14.00;;;;;;;;5082275;27;45268;-78
2022/11/06 14:45:21;;;;;;;;;36.00;31.25;;;;;;;;5089166;27;45411;-78
2022/11/06 14:47:51;;;;;;;;;14.00;10.75;;;;;;;;5082288;27;45424;-78
2022/11/06 14:50:19;;;;;;;;;12.25;11.50;;;;;;;;5082111;27;45664;-79
2022/11/06 14:52:56;;;;;;;;;23.50;17.50;;;;;;;;5079401;28;45237;-78